Saturday, October 20, 2018, 10:11 PM EDT
Back to Local

KEEN, Keene, Dillant-hopkins Airport

Location: Keene, NH, United States Lat: 42.9
Local Time: 10:11 PM EDT ( 2:11 GMT) Lon: -72.267
Time Zone: US/Eastern Elev: 488 ft

Show me the last for .
Show Decoded

2018-10-20 21:56 METAR KEEN 210156Z AUTO 18004KT 10SM OVC100 06/04 A2960 RMK AO2 SLP044 T00560044
                 $ =
2018-10-20 20:56 METAR KEEN 210056Z AUTO 00000KT 10SM OVC100 06/04 A2958 RMK AO2 SLP038 T00610044
                 $ =
2018-10-20 19:56 METAR KEEN 202356Z AUTO 00000KT 10SM SCT100 08/04 A2958 RMK AO2 SLP038 T00780044
                 10161 20078 53007 $ =
2018-10-20 18:56 METAR KEEN 202256Z AUTO 19004KT 10SM OVC090 10/06 A2957 RMK AO2 SLP036 T01000056
                 $ =
2018-10-20 17:56 METAR KEEN 202156Z AUTO VRB03KT 10SM SCT090 13/03 A2955 RMK AO2 SLP027 T01330033
                 $ =
2018-10-20 16:56 METAR KEEN 202056Z AUTO 26004KT 10SM BKN095 14/04 A2955 RMK AO2 SLP028 T01440039
                 55010 $ =
2018-10-20 15:56 METAR KEEN 201956Z AUTO 22006KT 10SM SCT055 15/03 A2955 RMK AO2 SLP026 T01500033
                 $ =
2018-10-20 14:56 METAR KEEN 201856Z AUTO 24014G17KT 10SM FEW049 15/04 A2956 RMK AO2 SLP029
                 T01500039 $ =
2018-10-20 13:56 METAR KEEN 201756Z AUTO 20007KT 180V260 10SM BKN055 BKN080 14/07 A2959 RMK AO2
                 RAB19E40 SLP039 P0000 60000 T01390067 10144 20111 58014 $ =
2018-10-20 11:56 METAR KEEN 201556Z AUTO 22007KT 10SM BKN042 OVC050 13/08 A2962 RMK AO2 SLP050
                 T01330078 $ =
2018-10-20 10:56 METAR KEEN 201456Z AUTO 19009KT 10SM OVC040 13/08 A2963 RMK AO2 SLP053 T01280083
                 58001 $ =
2018-10-20 09:56 METAR KEEN 201356Z AUTO 19007KT 10SM OVC036 12/08 A2964 RMK AO2 SLP058 T01170078
                 $ =
2018-10-20 08:56 METAR KEEN 201256Z AUTO 19011KT 10SM OVC034 12/08 A2964 RMK AO2 SLP057 T01170078
                 $ =
2018-10-20 07:56 METAR KEEN 201156Z AUTO 20013KT 10SM FEW021 OVC030 11/07 A2963 RMK AO2 SLP055
                 60000 T01110072 10117 20094 55002 $ =
2018-10-20 07:18 METAR KEEN 201118Z AUTO 20012G17KT 10SM FEW023 BKN035 OVC043 11/07 A2962 RMK AO2
                 $ =
2018-10-20 07:11 METAR KEEN 201111Z AUTO 20011KT 10SM FEW023 BKN029 OVC042 11/07 A2962 RMK AO2 $
                 =
2018-10-20 06:56 METAR KEEN 201056Z AUTO 20015G21KT 10SM SCT025 BKN030 OVC044 11/07 A2962 RMK AO2
                 SLP050 T01110067 $ =
2018-10-20 06:54 METAR KEEN 201054Z AUTO 20015G21KT 10SM SCT025 BKN030 OVC044 11/07 A2962 RMK AO2
                 $ =
2018-10-20 06:42 METAR KEEN 201042Z AUTO 19013KT 10SM BKN028 OVC048 11/07 A2963 RMK AO2 $ =
2018-10-20 05:56 METAR KEEN 200956Z AUTO 20011KT 10SM OVC050 11/06 A2964 RMK AO2 SLP057 T01110061
                 $ =
2018-10-20 04:56 METAR KEEN 200856Z AUTO 18004KT 10SM OVC070 11/06 A2966 RMK AO2 RAE11 SLP063
                 P0000 60000 T01110061 56034 $ =
2018-10-20 03:56 METAR KEEN 200756Z AUTO VRB03KT 10SM -RA FEW031 BKN070 OVC110 11/06 A2969 RMK
                 AO2 RAB44 SLP072 P0000 T01060061 $ =
2018-10-20 02:56 METAR KEEN 200656Z AUTO 17010KT 10SM SCT120 10/05 A2970 RMK AO2 PRESFR SLP078
                 T01000050 $ =
2018-10-20 01:56 METAR KEEN 200556Z AUTO 17007KT 10SM SCT120 10/04 A2976 RMK AO2 SLP098 T01000039
                 10111 20089 58026 $ =
2018-10-20 00:56 METAR KEEN 200456Z AUTO 16007KT 10SM CLR 10/03 A2978 RMK AO2 PRESFR SLP105
                 T01000028 401611044 $ =
2018-10-19 23:56 METAR KEEN 200356Z AUTO 19006KT 10SM CLR 09/02 A2983 RMK AO2 SLP125 T00940022 $
                 =
2018-10-19 22:56 METAR KEEN 200256Z AUTO 18010KT 10SM CLR 11/02 A2984 RMK AO2 SLP127 T01060022
                 58021 $ =

Support USWX by starting your Amazon purchase here.